Fédération internationale de Ski
Member Section
Print

OFFICIAL RESULTS

Strbske Pleso (SVK) 09.03.1999

FIS Race - Men's Super G

Race codex : 0068
Valid for FIS Points : YES
Jury
TD FIS
Referee
Chief of Race
Technical Data
Start Altitude m.
Finish Altitude m.
Vertical Drop 0 m.
Course Length m.
Homologation Number
 
Show more info»

Competitors

Display filter form
Rank Bib FIS Code Name Year Nation Total Time Diff. FIS Points
 1    292514 HEEL Werner  1982  ITA   1:37.08     59.10
 2    51005 SCHEIBER Mario  1983  AUT   1:37.23  +0.15  60.54
 3    51007 SCHOERGHOFER Philipp  1983  AUT   1:38.03  +0.95  68.20
 4    292384 PROSCH Philipp  1982  ITA   1:38.04  +0.96  68.30
 5    510927 PERREN Robi  1982  SUI   1:38.42  +1.34  71.94
 6    191964 POISSON David  1982  FRA   1:38.70  +1.62  74.62
 7    50975 FLASCHBERGER Christian  1983  AUT   1:38.81  +1.73  75.67
 8    292455 FILL Peter  1982  ITA   1:39.05  +1.97  77.97
 9    421247 FINSETH Eirik  1982  NOR   1:39.42  +2.34  81.52
 10    500933 OLSSON Jon  1982  SWE   1:39.50  +2.42  82.28
 11    180430 RAJALA Jukka  1982  FIN   1:39.55  +2.47  82.76
 12    51009 SPIES Georg  1983  AUT   1:40.09  +3.01  87.93
 13    510969 BONETTI Michael  1982  SUI   1:40.13  +3.05  88.32
 14    510931 RUPPEN Michel  1982  SUI   1:40.21  +3.13  89.08
 15    700686 LUBELLAN Peter  1982  SVK   1:40.47  +3.39  91.58
 16    500910 ANDERSSON Tony  1982  SWE   1:40.73  +3.65  94.07
 17    490694 BONNET GARCIA Silvain  1982  ESP   1:41.02  +3.94  96.84
 18    350072 KONRAD Thomas  1983  LIE   1:41.15  +4.07  98.09
 19    180418 HAARALA Janne  1982  FIN   1:41.39  +4.31  100.39
 20    191970 PAQUOTTE Loic  1982  FRA   1:41.60  +4.52  102.40
 21    561014 POJE Jaka  1983  SLO   1:41.65  +4.57  102.88
 22    400132 BUIS Berry  1983  NED   1:41.68  +4.60  103.17
 23    700680 HUDIK Maros  1982  SVK   1:41.89  +4.81  105.18
 24    560465 KANIC Matevz  1982  SLO   1:41.90  +4.82  105.27
 25    490695 COSTA COLL David  1982  ESP   1:42.06  +4.98  106.81
 26    400131 QUARTEL Alwin  1983  NED   1:42.71  +5.63  113.03
 27    380280 VUCINIC Ivan  1982  CRO   1:42.91  +5.83  114.95
 28    480669 GADKO Alexandr  1983  RUS   1:43.02  +5.94  116.00
 29    430290 KACZMAREK Piotr  1982  POL   1:43.08  +6.00  116.58
 30    150491 VALES Jan  1982  CZE   1:43.13  +6.05  117.06
 31    700705 SPISIAK Martin  1983  SVK   1:43.59  +6.51  121.46
 32    150519 KRYZL Jonas  1983  CZE   1:43.65  +6.57  122.04
 33    20142 JOURNET Mikael  1982  AND   1:43.79  +6.71  123.38
 34    430307 WOJTIUK Jan  1983  POL   1:44.13  +7.05  126.64
 35    150531 ZEMAN Bohumir  1983  CZE   1:44.16  +7.08  126.92
 36    430300 GASIENICA Daniel Szymon  1982  POL   1:44.70  +7.62  132.10
 37    480682 RASPOPOV Evgenij  1983  RUS   1:45.41  +8.33  138.90
 38    150482 BURDA Zdenek  1982  CZE   1:45.73  +8.65  141.96
 39    310322 VUJOVIC Gojko  1982  JUG   1:46.00  +8.92  144.55
 40    490784 FENOY Ignacio  1983  ESP   1:46.29  +9.21  147.33
 41    430296 MARASEK Mateusz  1982  POL   1:46.31  +9.23  147.52
 42    220497 BROWN Thomas  1982  GBR   1:46.70  +9.62  151.26
 43    220489 CRUICKSHANK Roger  1982  GBR   1:47.13  +10.05  155.38
 44    250174 OSKARSSON Bragi S.  1983  ISL   1:47.14  +10.06  155.47
 45    310321 SPOLJARIC Marko  1982  JUG   1:47.25  +10.17  156.53
 46    250163 SIGUROSSON Steinn  1982  ISL   1:48.40  +11.32  167.54
 47    450013 CARDELLI Tommaso  1983  SMR   1:48.41  +11.33  167.64
 48    220528 MILES Jaime  1983  GBR   1:48.45  +11.37  168.02
 49    390019 TOOM Mihkel  1983  EST   1:48.48  +11.40  168.31
 50    460046 MOLDOVAN Marius  1982  ROU   1:48.86  +11.78  171.95
 51    750049 BOGDANOVSKI Goce  1983  MKD   1:50.05  +12.97  183.35
 52    450012 MULARONI Davide  1982  SMR   1:50.47  +13.39  187.37
 53    690060 IVASHCHENKO Vitali  1983  UKR   1:50.82  +13.74  190.73
 54    230121 LIKETSOS Konstantinos  1982  GRE   1:51.46  +14.38  196.86
 55    250165 SIGURBERGSSON Thorarinn  1982  ISL   1:51.65  +14.57  198.68
 56    750051 GEORGIEVSKI Vladimir  1983  MKD   1:52.20  +15.12  203.95
 57    690062 BORYSENKO Oleksiy  1982  UKR   1:53.79  +16.71  219.18
 58    520055 YESILOVA Erkan  1981  TUR   1:53.83  +16.75  219.56
 59    270021 O REILLY Kieran  1982  IRL   1:54.14  +17.06  222.53
 60    710252 LOPCALIJA Edin  1983  BIH   1:54.57  +17.49  226.65
 61    270017 CASSIDY Julyan  1982  IRL   1:54.68  +17.60  227.70
 62    520066 YURTKURAN Alkin  1983  TUR   1:56.21  +19.13  242.36
 63    520063 SARE Hamit  1982  TUR   1:57.03  +19.95  250.22
 64    710253 MILEUSNIC Darjan  1982  BIH   2:01.19  +24.11  290.07
 65    520062 UESTUNDAG Kursat  1982  TUR   2:09.31  +32.23  367.85
Did not finish
     450011 GHIOTTI Stefano  1982  SMR       
     500909 ANDERSSON Oscar  1982  SWE       
     700683 FABIAN Lubomir  1982  SVK       
     421262 SKRINSRUD Simen  1982  NOR       
     490698 AMO SANCHO Alejandro  1982  ESP       
     390018 OPRJA Deyvid  1982  EST       
     510958 WULLSCHLEGER Christoph  1982  SUI       
     250157 PALSSON Sindri M.  1982  ISL       
     180432 RONKAINEN Jani  1982  FIN       
     170083 OVERGAARD Hans  1982  DEN       
     560472 RUTAR Rok  1982  SLO       
     292526 LOSS Matteo  1982  ITA       
     560474 PETRIJEVCANIN Goran  1982  SLO       
     350073 LANG Sandro  1983  LIE       
     191960 MOLLIER-CAMUS Adrien  1982  FRA       
     191995 JEANDIN Kevin  1982  FRA       
     500921 BJOERK Andre  1982  SWE       
Disqualified
     421328 SVINDAL Aksel L.  1982  NOR       
     421274 SOEHOEL ROERING Petter  1982  NOR       
     230120 KELEMOURIDIS Thodoros  1982  GRE       
     180442 KAITALA Jouni  1983  FIN       
     220485 MITCHELL Forbes  1982  GBR       
Did not start
     550013 KIRILOUS Raivis  1982  LAT       
     480610 KASAKOV Ivan  1982  RUS       
     740005 KHACHATRIAN Armen  1978  ARM       
     350074 HERMANN Samuel  1983  LIE